createdAt,value
2023-03-01T00:01:27.902Z,24.80
2023-03-01T00:03:53.134Z,24.83
2023-03-01T00:06:17.870Z,26.63
2023-03-01T00:08:43.812Z,25.67
2023-03-01T00:11:11.233Z,27.15
2023-03-01T00:13:35.727Z,26.50
2023-03-01T00:16:00.260Z,26.23
2023-03-01T00:18:24.664Z,24.58
2023-03-01T00:20:52.472Z,27.83
2023-03-01T00:23:16.862Z,27.23
2023-03-01T00:25:45.710Z,27.67
2023-03-01T00:28:10.078Z,28.92
2023-03-01T00:30:35.573Z,25.73
2023-03-01T00:32:59.973Z,25.88
2023-03-01T00:35:24.499Z,26.00
2023-03-01T00:37:48.847Z,25.33
2023-03-01T00:40:14.270Z,25.45
2023-03-01T00:42:40.087Z,25.70
2023-03-01T00:45:04.781Z,25.38
2023-03-01T00:47:32.276Z,26.10
2023-03-01T00:49:56.879Z,27.33
2023-03-01T00:52:21.306Z,27.25
2023-03-01T00:54:45.919Z,27.27
2023-03-01T00:57:10.784Z,26.05
2023-03-01T00:59:37.100Z,28.13
2023-03-01T01:02:01.531Z,27.35
2023-03-01T01:04:26.138Z,28.02
2023-03-01T01:06:50.615Z,28.05
2023-03-01T01:09:19.127Z,27.70
2023-03-01T01:11:44.036Z,28.80
2023-03-01T01:14:08.629Z,29.80
2023-03-01T01:16:34.417Z,28.27
2023-03-01T01:18:59.708Z,27.65
2023-03-01T01:21:28.050Z,28.45
2023-03-01T01:23:53.284Z,28.40
2023-03-01T01:26:20.050Z,27.77
2023-03-01T01:28:44.573Z,28.15
2023-03-01T01:31:09.432Z,29.45
2023-03-01T01:33:35.457Z,29.60
2023-03-01T01:35:59.822Z,30.48
2023-03-01T01:38:25.332Z,27.38
2023-03-01T01:40:49.955Z,29.02
2023-03-01T01:43:21.438Z,28.98
2023-03-01T01:45:46.176Z,29.92
2023-03-01T01:48:17.242Z,29.20
2023-03-01T01:50:46.064Z,28.92
2023-03-01T01:53:14.847Z,29.63
2023-03-01T01:55:41.996Z,29.17
2023-03-01T01:58:10.986Z,29.70
2023-03-01T02:00:35.496Z,28.27
2023-03-01T02:03:04.099Z,29.58
2023-03-01T02:05:35.470Z,29.63
2023-03-01T02:08:01.998Z,28.33
2023-03-01T02:10:27.679Z,28.52
2023-03-01T02:12:53.281Z,28.17
2023-03-01T02:15:40.700Z,28.45
2023-03-01T02:18:06.856Z,27.35
2023-03-01T02:20:37.665Z,30.05
2023-03-01T02:23:03.858Z,27.88
2023-03-01T02:25:40.062Z,30.00
2023-03-01T02:28:13.037Z,27.92
2023-03-01T02:30:59.390Z,29.13
2023-03-01T02:33:22.868Z,24.58
2023-03-01T02:35:47.599Z,29.85
2023-03-01T02:38:12.548Z,27.85
2023-03-01T02:40:38.176Z,26.60
2023-03-01T02:43:02.778Z,22.85
2023-03-01T02:45:28.093Z,28.17
2023-03-01T02:47:56.335Z,26.60
2023-03-01T02:50:46.728Z,25.58
2023-03-01T02:53:15.232Z,26.73
2023-03-01T02:55:39.989Z,27.58
2023-03-01T02:58:05.681Z,26.35
2023-03-01T03:00:36.383Z,26.83
2023-03-01T03:03:03.374Z,22.83
2023-03-01T03:05:30.348Z,25.42
2023-03-01T03:07:56.479Z,25.63
2023-03-01T03:10:24.230Z,27.48
2023-03-01T03:12:52.956Z,25.67
2023-03-01T03:15:18.744Z,24.00
2023-03-01T03:17:46.245Z,24.77
2023-03-01T03:20:20.122Z,24.98
2023-03-01T03:22:44.796Z,25.17
2023-03-01T03:25:11.837Z,23.95
2023-03-01T03:27:37.317Z,22.70
2023-03-01T03:30:01.707Z,24.48
2023-03-01T03:32:27.480Z,22.83
2023-03-01T03:34:51.874Z,23.58
2023-03-01T03:37:31.507Z,22.88
2023-03-01T03:39:55.952Z,22.85
2023-03-01T03:42:21.657Z,22.70
2023-03-01T03:44:46.113Z,23.80
2023-03-01T03:47:10.485Z,25.17
2023-03-01T03:49:36.783Z,23.25
2023-03-01T03:52:01.218Z,24.63
2023-03-01T03:54:27.024Z,18.02
2023-03-01T03:56:51.381Z,22.92
2023-03-01T03:59:15.776Z,23.23
2023-03-01T04:01:40.514Z,24.27
2023-03-01T04:04:05.427Z,23.10
2023-03-01T04:06:30.052Z,23.65
2023-03-01T04:09:01.112Z,24.67
2023-03-01T04:11:29.786Z,25.02
2023-03-01T04:13:56.000Z,23.85
2023-03-01T04:16:21.753Z,24.45
2023-03-01T04:18:46.194Z,23.50
2023-03-01T04:21:11.553Z,23.60
2023-03-01T04:23:37.082Z,25.33
2023-03-01T04:26:01.884Z,24.75
2023-03-01T04:28:28.934Z,23.98
2023-03-01T04:30:54.158Z,24.00
2023-03-01T04:33:18.987Z,24.67
2023-03-01T04:35:43.840Z,24.27
2023-03-01T04:38:09.261Z,22.67
2023-03-01T04:40:34.029Z,25.10
2023-03-01T04:42:58.493Z,23.77
2023-03-01T04:45:25.553Z,25.35
2023-03-01T04:47:50.224Z,25.13
2023-03-01T04:50:16.619Z,24.90
2023-03-01T04:52:41.212Z,22.67
2023-03-01T04:55:06.385Z,26.35
2023-03-01T04:57:30.712Z,25.25
2023-03-01T04:59:55.363Z,26.98
2023-03-01T05:02:21.263Z,26.17
2023-03-01T05:04:45.837Z,26.63
2023-03-01T05:07:10.597Z,27.17
2023-03-01T05:09:35.044Z,26.75
2023-03-01T05:11:59.513Z,25.58
2023-03-01T05:14:24.011Z,25.05
2023-03-01T05:16:49.660Z,24.17
2023-03-01T05:19:16.560Z,26.65
2023-03-01T05:22:01.842Z,26.67
2023-03-01T05:24:26.396Z,25.73
2023-03-01T05:26:53.081Z,25.52
2023-03-01T05:29:18.047Z,25.83
2023-03-01T05:31:42.369Z,25.42
2023-03-01T05:34:07.495Z,25.75
2023-03-01T05:36:33.492Z,23.95
2023-03-01T05:38:58.140Z,25.48
2023-03-01T05:41:22.454Z,24.98
2023-03-01T05:43:47.061Z,26.27
2023-03-01T05:46:13.460Z,25.75
2023-03-01T05:48:38.155Z,24.95
2023-03-01T05:51:03.849Z,25.33
2023-03-01T05:53:29.816Z,27.05
2023-03-01T05:55:54.278Z,26.27
2023-03-01T05:58:22.572Z,26.15
2023-03-01T06:00:48.944Z,27.92
2023-03-01T06:03:16.333Z,26.70
2023-03-01T06:05:41.614Z,26.58
2023-03-01T06:08:06.728Z,26.48
2023-03-01T06:10:32.600Z,25.35
2023-03-01T06:12:57.126Z,24.77
2023-03-01T06:15:21.905Z,25.13
2023-03-01T06:17:47.656Z,27.63
2023-03-01T06:20:16.611Z,25.77
2023-03-01T06:22:41.582Z,25.23
2023-03-01T06:25:07.901Z,26.90
2023-03-01T06:27:33.672Z,26.67
2023-03-01T06:29:58.100Z,26.92
2023-03-01T06:32:22.713Z,29.15
2023-03-01T06:34:47.180Z,26.95
2023-03-01T06:37:11.616Z,26.67
2023-03-01T06:39:36.523Z,26.73
2023-03-01T06:42:01.060Z,26.65
2023-03-01T06:44:27.005Z,26.10
2023-03-01T06:46:52.190Z,26.48
2023-03-01T06:49:17.313Z,22.90
2023-03-01T06:51:41.810Z,26.73
2023-03-01T06:54:07.365Z,26.73
2023-03-01T06:56:32.100Z,26.75
2023-03-01T06:58:57.098Z,27.08
2023-03-01T07:01:23.553Z,29.75
2023-03-01T07:03:48.459Z,27.75
2023-03-01T07:06:13.415Z,25.42
2023-03-01T07:08:38.497Z,26.45
2023-03-01T07:11:04.969Z,26.20
2023-03-01T07:13:29.746Z,29.10
2023-03-01T07:15:54.461Z,27.27
2023-03-01T07:18:20.671Z,27.77
2023-03-01T07:20:45.136Z,27.00
2023-03-01T07:23:09.890Z,27.45
2023-03-01T07:25:34.667Z,30.20
2023-03-01T07:27:59.266Z,29.80
2023-03-01T07:30:26.980Z,28.77
2023-03-01T07:32:53.551Z,29.92
2023-03-01T07:35:20.788Z,28.52
2023-03-01T07:37:45.434Z,30.10
2023-03-01T07:40:14.191Z,29.02
2023-03-01T07:42:39.065Z,28.00
2023-03-01T07:45:03.705Z,28.67
2023-03-01T07:47:30.845Z,29.80
2023-03-01T07:49:58.720Z,28.10
2023-03-01T07:52:24.813Z,30.40
2023-03-01T07:54:49.267Z,25.83
2023-03-01T07:57:14.221Z,30.17
2023-03-01T07:59:38.614Z,28.60
2023-03-01T08:02:03.225Z,31.25
2023-03-01T08:04:28.334Z,29.55
2023-03-01T08:06:52.760Z,29.77
2023-03-01T08:09:18.660Z,30.33
2023-03-01T08:11:43.229Z,28.70
2023-03-01T08:14:08.751Z,27.90
2023-03-01T08:16:34.623Z,29.63
2023-03-01T08:19:02.554Z,31.95
2023-03-01T08:21:27.364Z,28.55
2023-03-01T08:23:51.682Z,31.55
2023-03-01T08:26:19.922Z,31.25
2023-03-01T08:28:44.677Z,31.45
2023-03-01T08:31:17.906Z,29.63
2023-03-01T08:33:43.030Z,32.25
2023-03-01T08:36:08.339Z,33.50
2023-03-01T08:38:33.334Z,31.10
2023-03-01T08:40:57.842Z,33.38
2023-03-01T08:43:26.486Z,33.03
2023-03-01T08:45:51.169Z,30.67
2023-03-01T08:48:15.585Z,31.00
2023-03-01T08:50:42.144Z,32.45
2023-03-01T08:53:06.929Z,31.52
2023-03-01T08:55:31.289Z,32.20
2023-03-01T08:57:55.720Z,34.47
2023-03-01T09:00:22.692Z,30.17
2023-03-01T09:02:47.106Z,29.60
2023-03-01T09:05:11.815Z,31.42
2023-03-01T09:07:36.540Z,31.88
2023-03-01T09:10:00.888Z,31.85
2023-03-01T09:12:27.011Z,30.70
2023-03-01T09:14:51.307Z,32.13
2023-03-01T09:17:17.210Z,29.08
2023-03-01T09:19:41.853Z,31.48
2023-03-01T09:22:06.903Z,28.10
2023-03-01T09:24:31.454Z,31.05
2023-03-01T09:26:57.451Z,30.83
2023-03-01T09:29:21.969Z,32.03
2023-03-01T09:31:46.336Z,32.22
2023-03-01T09:34:16.359Z,30.55
2023-03-01T09:36:40.806Z,32.17
2023-03-01T09:39:06.895Z,30.13
2023-03-01T09:41:46.062Z,30.77
2023-03-01T09:44:16.560Z,32.65
2023-03-01T09:46:45.198Z,31.58
2023-03-01T09:49:20.386Z,33.55
2023-03-01T09:51:50.149Z,33.55
2023-03-01T09:54:17.213Z,32.95
2023-03-01T09:56:45.737Z,32.13
2023-03-01T09:59:23.205Z,29.80
2023-03-01T10:01:56.974Z,30.40
2023-03-01T10:04:46.785Z,31.88
2023-03-01T10:07:29.065Z,30.60
2023-03-01T10:09:54.000Z,28.90
2023-03-01T10:12:21.090Z,29.95
2023-03-01T10:14:54.038Z,29.05
2023-03-01T10:17:30.520Z,28.02
2023-03-01T10:19:57.337Z,27.55
2023-03-01T10:22:23.353Z,27.70
2023-03-01T10:24:48.551Z,27.90
2023-03-01T10:27:19.615Z,24.98
2023-03-01T10:29:52.762Z,24.58
2023-03-01T10:32:18.142Z,25.58
2023-03-01T10:34:42.474Z,22.55
2023-03-01T10:37:14.968Z,23.33
2023-03-01T10:39:39.484Z,21.20
2023-03-01T10:42:05.771Z,21.98
2023-03-01T10:44:42.818Z,21.98
2023-03-01T10:47:07.567Z,21.92
2023-03-01T10:49:32.103Z,22.75
2023-03-01T10:51:56.626Z,20.25
2023-03-01T10:54:25.029Z,22.63
2023-03-01T10:56:51.419Z,23.88
2023-03-01T10:59:30.471Z,23.40
2023-03-01T11:02:24.832Z,25.37
2023-03-01T11:05:03.608Z,23.95
2023-03-01T11:07:29.084Z,24.95
2023-03-01T11:09:57.022Z,28.17
2023-03-01T11:12:23.005Z,23.50
2023-03-01T11:14:50.791Z,23.52
2023-03-01T11:17:20.470Z,24.08
2023-03-01T11:19:54.164Z,24.50
2023-03-01T11:22:25.831Z,23.63
2023-03-01T11:25:07.393Z,24.85
2023-03-01T11:27:40.469Z,25.67
2023-03-01T11:30:10.476Z,22.25
2023-03-01T11:35:12.389Z,19.48
2023-03-01T11:37:42.166Z,23.58
2023-03-01T11:40:15.708Z,22.98
2023-03-01T11:43:04.492Z,22.80
2023-03-01T11:45:41.952Z,23.08
2023-03-01T11:48:26.233Z,21.90
2023-03-01T11:50:51.802Z,21.65
2023-03-01T11:53:33.355Z,20.75
2023-03-01T11:56:07.792Z,19.50
2023-03-01T11:58:58.707Z,20.10
2023-03-01T12:01:49.116Z,21.40
2023-03-01T12:05:07.442Z,21.55
2023-03-01T12:07:39.855Z,20.60
2023-03-01T12:10:22.821Z,22.33
2023-03-01T12:13:01.010Z,22.17
2023-03-01T12:15:41.902Z,21.13
2023-03-01T12:18:21.551Z,21.42
2023-03-01T12:20:55.794Z,21.98
2023-03-01T12:23:48.222Z,19.08
2023-03-01T12:26:21.830Z,19.55
2023-03-01T12:28:58.241Z,21.52
2023-03-01T12:31:56.462Z,19.98
2023-03-01T12:34:44.595Z,20.02
2023-03-01T12:37:21.803Z,20.38
2023-03-01T12:40:03.019Z,20.55
2023-03-01T12:42:34.710Z,19.98
2023-03-01T12:45:36.137Z,20.52
2023-03-01T12:48:26.397Z,20.25
2023-03-01T12:50:54.938Z,19.10
2023-03-01T12:53:26.338Z,20.00
2023-03-01T12:55:52.756Z,20.33
2023-03-01T12:58:29.863Z,19.83
2023-03-01T13:01:21.431Z,21.73
2023-03-01T13:04:14.512Z,21.33
2023-03-01T13:06:46.989Z,20.50
2023-03-01T13:09:22.339Z,20.13
2023-03-01T13:11:46.914Z,21.35
2023-03-01T13:14:39.554Z,20.05
2023-03-01T13:17:03.996Z,19.35
2023-03-01T13:19:33.230Z,20.88
2023-03-01T13:21:58.089Z,20.23
2023-03-01T13:24:27.675Z,19.92
2023-03-01T13:27:12.456Z,20.42
2023-03-01T13:29:47.372Z,20.88
2023-03-01T13:32:24.925Z,20.92
2023-03-01T13:35:00.668Z,20.83
2023-03-01T13:37:31.593Z,20.13
2023-03-01T13:39:56.108Z,20.48
2023-03-01T13:42:56.114Z,19.95
2023-03-01T13:45:34.803Z,19.60
2023-03-01T13:48:02.651Z,19.48
2023-03-01T13:50:30.960Z,19.05
2023-03-01T13:53:00.293Z,20.60
2023-03-01T13:55:27.924Z,21.30
2023-03-01T13:57:56.396Z,19.63
2023-03-01T14:00:36.969Z,20.17
2023-03-01T14:03:08.207Z,19.27
2023-03-01T14:05:34.041Z,20.55
2023-03-01T14:07:58.451Z,20.63
2023-03-01T14:10:23.601Z,20.92
2023-03-01T14:13:01.287Z,19.60
2023-03-01T14:15:34.158Z,21.17
2023-03-01T14:18:06.418Z,22.00
2023-03-01T14:20:37.111Z,19.60
2023-03-01T14:23:04.555Z,21.50
2023-03-01T14:25:33.169Z,21.25
2023-03-01T14:28:02.885Z,20.95
2023-03-01T14:30:32.390Z,21.02
2023-03-01T14:32:59.053Z,31.42
2023-03-01T14:35:25.465Z,21.98
2023-03-01T14:37:51.884Z,22.55
2023-03-01T14:40:25.259Z,26.38
2023-03-01T14:42:49.897Z,21.92
2023-03-01T14:45:15.903Z,21.75
2023-03-01T14:47:42.907Z,20.63
2023-03-01T14:50:11.865Z,24.05
2023-03-01T14:52:39.666Z,21.85
2023-03-01T14:55:09.199Z,20.60
2023-03-01T14:57:34.264Z,22.33
2023-03-01T15:00:05.823Z,23.10
2023-03-01T15:02:31.356Z,22.60
2023-03-01T15:05:01.689Z,21.73
2023-03-01T15:07:33.386Z,21.33
2023-03-01T15:09:58.184Z,21.63
2023-03-01T15:12:44.964Z,22.40
2023-03-01T15:15:37.924Z,21.73
2023-03-01T15:18:04.893Z,22.30
2023-03-01T15:20:33.078Z,20.90
2023-03-01T15:22:59.156Z,22.38
2023-03-01T15:25:26.697Z,23.23
2023-03-01T15:27:54.803Z,22.83
2023-03-01T15:30:22.931Z,21.67
2023-03-01T15:32:47.665Z,21.92
2023-03-01T15:35:43.612Z,21.77
2023-03-01T15:38:28.052Z,22.98
2023-03-01T15:40:53.551Z,22.48
2023-03-01T15:43:44.941Z,24.50
2023-03-01T15:46:24.582Z,25.45
2023-03-01T15:48:53.476Z,24.90
2023-03-01T15:51:18.371Z,27.77
2023-03-01T15:53:53.781Z,28.38
2023-03-01T15:56:18.912Z,27.80
2023-03-01T15:58:44.748Z,26.65
2023-03-01T16:01:15.037Z,24.30
2023-03-01T16:03:39.482Z,24.10
2023-03-01T16:06:04.184Z,25.33
2023-03-01T16:08:28.707Z,23.58
2023-03-01T16:10:54.692Z,25.77
2023-03-01T16:13:20.410Z,25.02
2023-03-01T16:15:46.411Z,22.98
2023-03-01T16:18:12.733Z,24.50
2023-03-01T16:20:38.509Z,25.88
2023-03-01T16:23:03.636Z,25.75
2023-03-01T16:25:28.083Z,25.73
2023-03-01T16:27:53.689Z,24.90
2023-03-01T16:30:20.340Z,26.58
2023-03-01T16:32:48.466Z,26.90
2023-03-01T16:35:15.032Z,25.42
2023-03-01T16:37:40.375Z,24.13
2023-03-01T16:40:05.959Z,23.85
2023-03-01T16:42:30.508Z,24.95
2023-03-01T16:44:58.092Z,24.58
2023-03-01T16:47:22.599Z,24.58
2023-03-01T16:49:48.422Z,24.25
2023-03-01T16:52:12.981Z,23.63
2023-03-01T16:54:37.592Z,24.67
2023-03-01T16:57:02.079Z,25.70
2023-03-01T16:59:26.489Z,24.92
2023-03-01T17:01:50.851Z,25.55
2023-03-01T17:04:17.770Z,26.38
2023-03-01T17:06:44.677Z,26.27
2023-03-01T17:09:09.294Z,26.27
2023-03-01T17:11:34.071Z,26.13
2023-03-01T17:13:58.820Z,26.15
2023-03-01T17:16:23.941Z,27.08
2023-03-01T17:18:48.480Z,26.77
2023-03-01T17:21:13.795Z,28.33
2023-03-01T17:23:42.063Z,28.10
2023-03-01T17:26:07.397Z,26.92
2023-03-01T17:28:33.974Z,26.70
2023-03-01T17:30:58.696Z,27.75
2023-03-01T17:33:23.877Z,27.45
2023-03-01T17:35:49.025Z,26.30
2023-03-01T17:38:13.843Z,26.33
2023-03-01T17:40:41.835Z,27.13
2023-03-01T17:43:06.490Z,28.48
2023-03-01T17:45:31.496Z,26.15
2023-03-01T17:47:56.101Z,30.45
2023-03-01T17:50:20.946Z,28.60
2023-03-01T17:52:45.735Z,25.95
2023-03-01T17:55:12.947Z,26.45
2023-03-01T17:57:40.723Z,26.75
2023-03-01T18:00:06.995Z,24.73
2023-03-01T18:02:36.642Z,25.75
2023-03-01T18:05:01.409Z,26.60
2023-03-01T18:07:28.339Z,28.08
2023-03-01T18:09:52.848Z,27.27
2023-03-01T18:12:17.622Z,25.38
2023-03-01T18:14:44.221Z,27.42
2023-03-01T18:17:12.131Z,26.38
2023-03-01T18:19:37.478Z,25.05
2023-03-01T18:22:02.129Z,25.35
2023-03-01T18:24:27.050Z,26.23
2023-03-01T18:26:52.374Z,25.00
2023-03-01T18:29:17.759Z,25.83
2023-03-01T18:31:45.113Z,25.23
2023-03-01T18:34:13.430Z,24.77
2023-03-01T18:36:38.401Z,27.25
2023-03-01T18:39:05.555Z,28.25
2023-03-01T18:41:32.043Z,29.30
2023-03-01T18:43:57.979Z,27.50
2023-03-01T18:46:23.256Z,28.85
2023-03-01T18:48:49.956Z,28.70
2023-03-01T18:51:16.757Z,26.73
2023-03-01T18:53:42.084Z,28.38
2023-03-01T18:56:08.704Z,25.38
2023-03-01T18:58:33.996Z,26.65
2023-03-01T19:01:00.252Z,25.65
2023-03-01T19:03:25.239Z,27.27
2023-03-01T19:05:51.800Z,26.55
2023-03-01T19:08:17.688Z,26.33
2023-03-01T19:10:42.311Z,26.48
2023-03-01T19:13:06.988Z,26.08
2023-03-01T19:15:32.150Z,25.75
2023-03-01T19:17:57.559Z,26.55
2023-03-01T19:20:22.972Z,25.63
2023-03-01T19:22:50.236Z,25.35
2023-03-01T19:25:15.741Z,24.95
2023-03-01T19:27:40.471Z,26.52
2023-03-01T19:30:06.526Z,26.42
2023-03-01T19:32:33.204Z,27.58
2023-03-01T19:34:58.278Z,27.50
2023-03-01T19:37:23.977Z,26.77
2023-03-01T19:39:50.384Z,27.52
2023-03-01T19:42:15.538Z,26.15
2023-03-01T19:44:40.247Z,26.65
2023-03-01T19:47:04.933Z,25.20
2023-03-01T19:49:30.285Z,23.92
2023-03-01T19:51:55.068Z,26.92
2023-03-01T19:54:20.789Z,24.75
2023-03-01T19:56:47.146Z,24.45
2023-03-01T19:59:12.449Z,24.45
2023-03-01T20:01:42.724Z,25.38
2023-03-01T20:04:09.146Z,22.30
2023-03-01T20:06:34.247Z,24.15
2023-03-01T20:09:02.333Z,23.45
2023-03-01T20:11:31.966Z,24.65
2023-03-01T20:13:58.060Z,24.58
2023-03-01T20:16:24.609Z,22.60
2023-03-01T20:18:49.335Z,22.27
2023-03-01T20:21:24.444Z,22.10
2023-03-01T20:23:50.039Z,22.40
2023-03-01T20:26:19.763Z,23.08
2023-03-01T20:28:44.909Z,22.17
2023-03-01T20:31:13.288Z,23.17
2023-03-01T20:33:38.257Z,23.20
2023-03-01T20:36:03.347Z,21.88
2023-03-01T20:38:29.306Z,23.50
2023-03-01T20:40:59.053Z,22.90
2023-03-01T20:43:23.849Z,22.63
2023-03-01T20:45:48.380Z,23.73
2023-03-01T20:48:14.873Z,23.45
2023-03-01T20:50:42.831Z,22.67
2023-03-01T20:53:07.317Z,23.92
2023-03-01T20:55:32.195Z,24.50
2023-03-01T20:57:57.030Z,25.52
2023-03-01T21:00:22.591Z,23.88
2023-03-01T21:02:47.567Z,23.23
2023-03-01T21:05:14.437Z,24.83
2023-03-01T21:07:39.354Z,24.85
2023-03-01T21:10:09.614Z,26.55
2023-03-01T21:12:35.218Z,26.27
2023-03-01T21:15:01.419Z,25.40
2023-03-01T21:17:26.253Z,25.63
2023-03-01T21:19:51.587Z,29.00
2023-03-01T21:22:19.177Z,25.67
2023-03-01T21:24:44.121Z,23.45
2023-03-01T21:27:09.072Z,23.42
2023-03-01T21:29:34.080Z,23.02
2023-03-01T21:31:58.888Z,22.50
2023-03-01T21:34:23.498Z,25.55
2023-03-01T21:36:48.249Z,25.77
2023-03-01T21:39:16.152Z,24.75
2023-03-01T21:41:41.090Z,26.10
2023-03-01T21:44:06.878Z,25.33
2023-03-01T21:46:33.555Z,31.38
2023-03-01T21:48:59.039Z,26.35
2023-03-01T21:51:26.045Z,26.88
2023-03-01T21:53:51.557Z,27.30
2023-03-01T21:56:20.142Z,25.80
2023-03-01T21:58:46.051Z,26.48
2023-03-01T22:01:15.615Z,27.83
2023-03-01T22:03:45.472Z,29.02
2023-03-01T22:08:43.861Z,26.48
2023-03-01T22:11:08.387Z,25.88
2023-03-01T22:13:37.486Z,29.20
2023-03-01T22:16:02.081Z,27.00
2023-03-01T22:18:27.074Z,26.42
2023-03-01T22:20:55.112Z,28.13
2023-03-01T22:23:20.112Z,25.38
2023-03-01T22:25:46.132Z,25.73
2023-03-01T22:28:11.340Z,26.63
2023-03-01T22:30:37.757Z,25.30
2023-03-01T22:33:02.412Z,26.50
2023-03-01T22:35:27.397Z,27.50
2023-03-01T22:37:52.442Z,27.10
2023-03-01T22:40:17.322Z,25.65
2023-03-01T22:42:42.467Z,29.13
2023-03-01T22:45:08.417Z,31.77
2023-03-01T22:47:37.749Z,28.88
2023-03-01T22:50:02.785Z,31.70
2023-03-01T22:52:27.726Z,31.50
2023-03-01T22:54:55.748Z,35.17
2023-03-01T22:57:20.449Z,32.13
2023-03-01T22:59:45.028Z,32.75
2023-03-01T23:02:09.643Z,31.20
2023-03-01T23:04:37.281Z,38.22
2023-03-01T23:07:02.044Z,31.67
2023-03-01T23:09:30.182Z,32.15
2023-03-01T23:11:55.242Z,33.00
2023-03-01T23:14:21.550Z,27.10
2023-03-01T23:16:46.614Z,27.52
2023-03-01T23:19:11.543Z,25.20
2023-03-01T23:21:38.030Z,27.98
2023-03-01T23:24:02.817Z,26.92
2023-03-01T23:26:28.723Z,27.20
2023-03-01T23:28:53.288Z,25.48
2023-03-01T23:31:18.494Z,24.17
2023-03-01T23:33:44.850Z,24.48
2023-03-01T23:36:17.461Z,24.42
2023-03-01T23:38:43.784Z,23.33
2023-03-01T23:41:11.232Z,21.73
2023-03-01T23:43:35.968Z,24.35
2023-03-01T23:46:00.478Z,24.52
2023-03-01T23:48:25.427Z,26.02
2023-03-01T23:50:50.014Z,23.50
2023-03-01T23:53:17.230Z,24.88
2023-03-01T23:55:47.937Z,25.45
2023-03-01T23:58:12.664Z,24.88
